Time;durP1;ratioP1;P1;durP2;ratioP2;P2;SDS_P1;SDS_P2;PMS_P1;PMS_P2;Temp;Humidity;BMP_temperature;BMP_pressure;BME280_temperature;BME280_humidity;BME280_pressure;Samples;Min_cycle;Max_cycle;Signal;HPM_P1;HPM_P2
2023/03/10 00:02:00;;;;;;;24.53;14.50;;;;;;;-145.18;100.00;46683.84;5014438;28;20040;-75
2023/03/10 00:04:25;;;;;;;26.43;14.37;;;;;;;-145.18;100.00;46685.78;5018820;28;20591;-75
2023/03/10 00:06:51;;;;;;;22.90;14.50;;;;;;;-145.18;100.00;46697.50;5034448;28;20460;-74
2023/03/10 00:09:17;;;;;;;21.00;12.93;;;;;;;-145.18;100.00;46693.59;5041136;28;20041;-75
2023/03/10 00:11:43;;;;;;;23.97;14.40;;;;;;;-145.18;100.00;46695.56;5037506;28;20282;-75
2023/03/10 00:14:09;;;;;;;23.43;14.00;;;;;;;-145.18;100.00;46695.56;5045600;28;20397;-75
2023/03/10 00:16:34;;;;;;;22.47;13.87;;;;;;;-145.18;100.00;46697.50;5038948;28;20283;-75
2023/03/10 00:18:59;;;;;;;22.43;13.60;;;;;;;-145.18;100.00;46699.47;5029885;28;20064;-75
2023/03/10 00:21:28;;;;;;;22.20;13.73;;;;;;;-145.18;100.00;46691.66;5030247;28;20034;-75
2023/03/10 00:23:54;;;;;;;22.70;13.90;;;;;;;-145.18;100.00;46687.75;5030056;28;20029;-75
2023/03/10 00:26:20;;;;;;;23.17;14.03;;;;;;;-145.18;100.00;46697.50;5038570;28;20281;-75
2023/03/10 00:28:46;;;;;;;25.90;14.87;;;;;;;-145.18;100.00;46697.50;5047900;28;20060;-75
2023/03/10 00:31:25;;;;;;;22.80;13.90;;;;;;;-145.18;100.00;46699.47;5032640;28;20763;-75
2023/03/10 00:33:51;;;;;;;27.67;17.03;;;;;;;-145.18;100.00;46695.56;5028638;28;20653;-75
2023/03/10 00:36:24;;;;;;;26.10;16.33;;;;;;;-145.18;100.00;46693.59;5027484;28;20275;-75
2023/03/10 00:38:51;;;;;;;25.77;15.80;;;;;;;-145.18;100.00;46695.56;5046609;28;20041;-75
2023/03/10 00:41:22;;;;;;;28.00;16.17;;;;;;;-145.18;100.00;46703.38;5045690;28;20274;-75
2023/03/10 00:43:48;;;;;;;24.77;14.50;;;;;;;-145.18;100.00;46699.47;5048281;28;20711;-75
2023/03/10 00:46:14;;;;;;;26.67;16.50;;;;;;;-145.18;100.00;46697.50;5042510;28;20369;-75
2023/03/10 00:48:40;;;;;;;30.07;16.73;;;;;;;-145.18;100.00;46695.56;5045720;28;20037;-75
2023/03/10 00:51:06;;;;;;;29.53;16.27;;;;;;;-145.18;100.00;46691.66;5047058;28;20036;-75
2023/03/10 00:53:33;;;;;;;23.00;15.17;;;;;;;-145.18;100.00;46699.47;5045741;28;20604;-75
2023/03/10 00:56:11;;;;;;;27.70;16.80;;;;;;;-145.18;100.00;46695.56;5046311;28;20032;-75
2023/03/10 00:58:36;;;;;;;28.87;16.17;;;;;;;-145.18;100.00;46695.56;5030769;28;20281;-75
2023/03/10 01:01:03;;;;;;;26.27;16.53;;;;;;;-145.18;100.00;46689.69;5044492;28;20266;-75
2023/03/10 01:03:29;;;;;;;25.63;14.77;;;;;;;-145.18;100.00;46695.56;5045049;28;20082;-75
2023/03/10 01:05:55;;;;;;;28.43;16.30;;;;;;;-145.18;100.00;46697.50;5047689;28;20803;-75
2023/03/10 01:08:22;;;;;;;26.33;15.53;;;;;;;-145.18;100.00;46693.59;5034009;28;20041;-75
2023/03/10 01:10:48;;;;;;;24.60;15.23;;;;;;;-145.18;100.00;46695.56;5031482;28;20279;-75
2023/03/10 01:13:16;;;;;;;27.90;16.20;;;;;;;-145.18;100.00;46697.50;5039685;28;20638;-75
2023/03/10 01:15:43;;;;;;;24.87;15.53;;;;;;;-145.18;100.00;46697.50;5049849;28;20286;-75
2023/03/10 01:18:09;;;;;;;30.43;16.80;;;;;;;-145.18;100.00;46693.59;5040788;28;20282;-75
2023/03/10 01:20:34;;;;;;;24.37;14.90;;;;;;;-145.18;100.00;46693.59;5035145;28;20301;-75
2023/03/10 01:23:00;;;;;;;27.67;16.40;;;;;;;-145.18;100.00;46699.47;5024262;28;20270;-75
2023/03/10 01:25:27;;;;;;;26.87;15.67;;;;;;;-145.18;100.00;46695.56;5051963;28;20477;-75
2023/03/10 01:27:53;;;;;;;27.07;15.47;;;;;;;-145.18;100.00;46699.47;5044886;28;20037;-75
2023/03/10 01:30:18;;;;;;;28.50;15.83;;;;;;;-145.18;100.00;46699.47;5051237;28;20277;-75
2023/03/10 01:32:44;;;;;;;26.97;16.07;;;;;;;-145.18;100.00;46697.50;5048074;28;20083;-75
2023/03/10 01:35:10;;;;;;;25.67;16.97;;;;;;;-145.18;100.00;46697.50;5033503;28;20034;-74
2023/03/10 01:37:35;;;;;;;23.97;15.43;;;;;;;-145.18;100.00;46701.41;5035938;28;20029;-75
2023/03/10 01:40:04;;;;;;;26.30;15.73;;;;;;;-145.18;100.00;46699.47;5051103;28;20112;-75
2023/03/10 01:42:30;;;;;;;27.13;17.03;;;;;;;-145.18;100.00;46695.56;5044687;28;20072;-75
2023/03/10 01:45:15;;;;;;;27.90;16.83;;;;;;;-145.18;100.00;46689.69;5041184;28;20323;-75
2023/03/10 01:47:42;;;;;;;25.80;16.30;;;;;;;-145.18;100.00;46693.59;5049376;28;20744;-75
2023/03/10 01:50:12;;;;;;;26.43;16.53;;;;;;;-145.18;100.00;46701.41;5032851;28;20278;-74
2023/03/10 01:52:38;;;;;;;26.97;15.53;;;;;;;-145.18;100.00;46697.50;5033046;28;20333;-75
2023/03/10 01:55:30;;;;;;;25.80;16.17;;;;;;;-145.18;100.00;46697.50;5049691;28;20304;-75
2023/03/10 01:57:57;;;;;;;28.33;16.63;;;;;;;-145.18;100.00;46701.41;5034531;28;20274;-75
2023/03/10 02:00:27;;;;;;;26.87;16.43;;;;;;;-145.18;100.00;46695.56;5046358;28;20282;-75
2023/03/10 02:03:15;;;;;;;27.80;16.23;;;;;;;-145.18;100.00;46701.41;5033308;28;20310;-75
2023/03/10 02:05:44;;;;;;;26.40;15.13;;;;;;;-145.18;100.00;46703.38;5050552;28;20289;-75
2023/03/10 02:08:13;;;;;;;25.97;16.00;;;;;;;-145.18;100.00;46695.56;5046167;28;20963;-74
2023/03/10 02:10:38;;;;;;;25.17;15.90;;;;;;;-145.18;100.00;46697.50;5046140;28;20274;-75
2023/03/10 02:13:04;;;;;;;28.53;16.53;;;;;;;-145.18;100.00;46701.41;5048468;28;20751;-75
2023/03/10 02:15:32;;;;;;;25.03;15.73;;;;;;;-145.18;100.00;46699.47;5032666;28;20547;-75
2023/03/10 02:17:59;;;;;;;26.97;16.17;;;;;;;-145.18;100.00;46699.47;5048525;28;20037;-74
2023/03/10 02:20:34;;;;;;;28.37;15.93;;;;;;;-145.18;100.00;46697.50;5032415;28;20616;-75
2023/03/10 02:23:00;;;;;;;25.40;16.00;;;;;;;-145.18;100.00;46701.41;5014475;28;20727;-74
2023/03/10 02:25:35;;;;;;;24.97;15.57;;;;;;;-145.18;100.00;46701.41;5043576;28;20278;-75
2023/03/10 02:28:00;;;;;;;26.55;16.05;;;;;;;-145.18;100.00;46697.50;5041333;28;20397;-74
2023/03/10 02:30:33;;;;;;;25.60;15.57;;;;;;;-145.18;100.00;46697.50;5034831;28;20037;-75
2023/03/10 02:33:04;;;;;;;26.67;16.13;;;;;;;-145.18;100.00;46703.38;5031870;28;20038;-74
2023/03/10 02:35:29;;;;;;;25.37;14.87;;;;;;;-145.18;100.00;46685.78;5033969;28;20270;-74
2023/03/10 02:37:55;;;;;;;23.80;14.33;;;;;;;-145.18;100.00;46699.47;5044059;28;20270;-75
2023/03/10 02:40:32;;;;;;;26.17;15.23;;;;;;;-145.18;100.00;46699.47;5042189;28;20025;-74
2023/03/10 02:43:06;;;;;;;25.70;14.13;;;;;;;-145.18;100.00;46699.47;5037050;28;20028;-74
2023/03/10 02:45:35;;;;;;;25.97;15.17;;;;;;;-145.18;100.00;46695.56;5035430;28;20281;-74
2023/03/10 02:48:01;;;;;;;24.90;15.40;;;;;;;-145.18;100.00;46699.47;5031639;28;20874;-74
2023/03/10 02:50:29;;;;;;;26.17;15.67;;;;;;;-145.18;100.00;46697.50;5034447;28;20305;-74
2023/03/10 02:53:16;;;;;;;25.03;14.37;;;;;;;-145.18;100.00;46699.47;5045562;28;20041;-74
2023/03/10 02:55:42;;;;;;;26.10;14.10;;;;;;;-145.18;100.00;46697.50;5035779;28;20281;-74
2023/03/10 02:58:08;;;;;;;23.07;14.53;;;;;;;-145.18;100.00;46699.47;5036161;28;20269;-74
2023/03/10 03:03:10;;;;;;;23.80;13.48;;;;;;;-145.18;100.00;46693.59;5233225;23;20091;-74
2023/03/10 03:05:36;;;;;;;24.90;13.77;;;;;;;-145.18;100.00;46693.59;5050385;28;20120;-73
2023/03/10 03:08:04;;;;;;;21.73;13.40;;;;;;;-145.18;100.00;46701.41;5033261;28;20777;-73
2023/03/10 03:10:29;;;;;;;23.83;13.83;;;;;;;-145.18;100.00;46703.38;5040702;28;20282;-73
2023/03/10 03:12:55;;;;;;;24.87;14.93;;;;;;;-145.18;100.00;46695.56;5031476;28;20321;-73
2023/03/10 03:15:21;;;;;;;26.50;14.40;;;;;;;-145.18;100.00;46701.41;5031441;28;20040;-74
2023/03/10 03:17:47;;;;;;;27.03;15.13;;;;;;;-145.18;100.00;46697.50;5031550;28;20026;-73
2023/03/10 03:20:13;;;;;;;23.73;14.23;;;;;;;-145.18;100.00;46697.50;5031365;28;20377;-73
2023/03/10 03:22:43;;;;;;;24.43;14.97;;;;;;;-145.18;100.00;46697.50;5043437;28;20037;-73
2023/03/10 03:25:11;;;;;;;27.10;16.37;;;;;;;-145.18;100.00;46699.47;5051287;28;20268;-73
2023/03/10 03:27:37;;;;;;;27.57;15.00;;;;;;;-145.18;100.00;46697.50;5050973;28;20289;-73
2023/03/10 03:30:08;;;;;;;26.50;14.97;;;;;;;-145.18;100.00;46701.41;5051034;28;20348;-74
2023/03/10 03:32:34;;;;;;;28.17;15.83;;;;;;;-145.18;100.00;46695.56;5051034;28;20030;-74
2023/03/10 03:35:00;;;;;;;25.53;15.73;;;;;;;-145.18;100.00;46697.50;5034339;28;20275;-74
2023/03/10 03:37:25;;;;;;;27.93;16.30;;;;;;;-145.18;100.00;46693.59;5030558;28;20262;-74
2023/03/10 03:39:51;;;;;;;27.97;15.90;;;;;;;-145.18;100.00;46701.41;5032289;28;20120;-73
2023/03/10 03:42:16;;;;;;;28.60;15.90;;;;;;;-145.18;100.00;46697.50;5042386;28;20068;-73
2023/03/10 03:44:42;;;;;;;28.73;15.93;;;;;;;-145.18;100.00;46699.47;5051056;28;20460;-74
2023/03/10 03:47:09;;;;;;;31.03;16.77;;;;;;;-145.18;100.00;46699.47;5050209;28;20040;-73
2023/03/10 03:49:35;;;;;;;33.57;16.80;;;;;;;-145.18;100.00;46697.50;5033039;28;20033;-73
2023/03/10 03:52:01;;;;;;;31.97;17.00;;;;;;;-145.18;100.00;46693.59;5031950;28;20361;-74
2023/03/10 03:54:26;;;;;;;32.13;17.47;;;;;;;-145.18;100.00;46697.50;5031035;28;20361;-74
2023/03/10 03:56:51;;;;;;;35.00;17.97;;;;;;;-145.18;100.00;46699.47;5030766;28;20061;-73
2023/03/10 03:59:17;;;;;;;35.37;18.50;;;;;;;-145.18;100.00;46695.56;5012590;28;20077;-73
2023/03/10 04:01:42;;;;;;;34.10;17.43;;;;;;;-145.18;100.00;46699.47;5030699;28;20092;-74
2023/03/10 04:04:07;;;;;;;36.03;17.73;;;;;;;-145.18;100.00;46699.47;5030303;28;20112;-74
2023/03/10 04:06:33;;;;;;;35.50;18.83;;;;;;;-145.18;100.00;46697.50;5030640;28;20025;-74
2023/03/10 04:08:58;;;;;;;33.77;17.80;;;;;;;-145.18;100.00;46695.56;5030230;28;20198;-73
2023/03/10 04:11:24;;;;;;;37.97;19.03;;;;;;;-145.18;100.00;46699.47;5030649;28;20075;-73
2023/03/10 04:13:49;;;;;;;41.37;19.90;;;;;;;-145.18;100.00;46693.59;5032019;28;20040;-73
2023/03/10 04:16:14;;;;;;;39.53;19.17;;;;;;;-145.18;100.00;46693.59;5050048;28;20124;-73
2023/03/10 04:18:40;;;;;;;44.93;20.27;;;;;;;-145.18;100.00;46695.56;5050055;28;20440;-73
2023/03/10 04:21:06;;;;;;;43.27;20.57;;;;;;;-145.18;100.00;46695.56;5050238;28;20108;-74
2023/03/10 04:23:31;;;;;;;43.07;21.27;;;;;;;-145.18;100.00;46701.41;5036829;28;20049;-73
2023/03/10 04:25:56;;;;;;;40.83;20.10;;;;;;;-145.18;100.00;46695.56;5034215;28;20032;-73
2023/03/10 04:28:22;;;;;;;43.47;21.30;;;;;;;-145.18;100.00;46701.41;5049721;28;20569;-73
2023/03/10 04:30:47;;;;;;;42.00;21.10;;;;;;;-145.18;100.00;46699.47;5050507;28;20082;-74
2023/03/10 04:33:13;;;;;;;41.30;20.80;;;;;;;-145.18;100.00;46699.47;5049629;28;20067;-74
2023/03/10 04:35:42;;;;;;;43.67;20.47;;;;;;;-145.18;100.00;46699.47;5050333;28;20104;-74
2023/03/10 04:38:08;;;;;;;47.13;21.23;;;;;;;-145.18;100.00;46699.47;5043604;28;20025;-74
2023/03/10 04:40:34;;;;;;;40.43;20.30;;;;;;;-145.18;100.00;46699.47;5030318;28;20678;-74
2023/03/10 04:43:00;;;;;;;43.33;20.50;;;;;;;-145.18;100.00;46699.47;5029569;28;20030;-73
2023/03/10 04:45:25;;;;;;;44.33;21.43;;;;;;;-145.18;100.00;46699.47;5030282;28;20100;-73
2023/03/10 04:47:50;;;;;;;44.23;20.70;;;;;;;-145.18;100.00;46697.50;5029895;28;20410;-74
2023/03/10 04:50:16;;;;;;;51.67;21.10;;;;;;;-145.18;100.00;46699.47;5039053;28;20029;-74
2023/03/10 04:52:45;;;;;;;42.70;20.83;;;;;;;-145.18;100.00;46695.56;5054003;28;20397;-74
2023/03/10 04:55:12;;;;;;;57.93;22.33;;;;;;;-145.18;100.00;46699.47;5054104;28;20028;-74
2023/03/10 04:57:38;;;;;;;50.00;22.50;;;;;;;-145.18;100.00;46697.50;5035963;28;20421;-74
2023/03/10 05:00:07;;;;;;;47.97;22.27;;;;;;;-145.18;100.00;46699.47;5053912;28;20828;-74
2023/03/10 05:02:35;;;;;;;51.43;21.60;;;;;;;-145.18;100.00;46689.69;5038801;28;20126;-74
2023/03/10 05:05:00;;;;;;;50.50;22.00;;;;;;;-145.18;100.00;46695.56;5033809;28;20275;-74
2023/03/10 05:07:27;;;;;;;45.23;22.20;;;;;;;-145.18;100.00;46699.47;5033938;28;20309;-73
2023/03/10 05:09:53;;;;;;;53.07;23.97;;;;;;;-145.18;100.00;46695.56;5033760;28;20041;-73
2023/03/10 05:12:18;;;;;;;44.87;21.03;;;;;;;-145.18;100.00;46697.50;5015856;28;20583;-74
2023/03/10 05:14:43;;;;;;;50.77;21.43;;;;;;;-145.18;100.00;46699.47;5050756;28;20119;-74
2023/03/10 05:17:10;;;;;;;58.57;23.43;;;;;;;-145.18;100.00;46699.47;5053761;28;20029;-74
2023/03/10 05:19:36;;;;;;;54.57;21.37;;;;;;;-145.18;100.00;46695.56;5035563;28;20188;-74
2023/03/10 05:22:03;;;;;;;52.97;21.63;;;;;;;-145.18;100.00;46695.56;5053545;28;20357;-74
2023/03/10 05:24:29;;;;;;;48.73;21.47;;;;;;;-145.18;100.00;46695.56;5053531;28;20028;-73
2023/03/10 05:26:55;;;;;;;54.50;20.57;;;;;;;-145.18;100.00;46691.66;5034057;28;20286;-74
2023/03/10 05:29:20;;;;;;;49.97;21.97;;;;;;;-145.18;100.00;46699.47;5045313;28;20524;-74
2023/03/10 05:31:46;;;;;;;50.23;20.07;;;;;;;-145.18;100.00;46699.47;5053532;28;20029;-74
2023/03/10 05:34:12;;;;;;;55.50;21.57;;;;;;;-145.18;100.00;46701.41;5041119;28;20123;-74
2023/03/10 05:36:39;;;;;;;50.37;20.80;;;;;;;-145.18;100.00;46697.50;5042994;28;20033;-73
2023/03/10 05:39:05;;;;;;;56.43;22.93;;;;;;;-145.18;100.00;46699.47;5045121;28;20270;-74
2023/03/10 05:41:31;;;;;;;56.80;22.57;;;;;;;-145.18;100.00;46697.50;5042687;28;20262;-73
2023/03/10 05:43:56;;;;;;;50.33;20.43;;;;;;;-145.18;100.00;46697.50;5043444;28;20067;-73
2023/03/10 05:46:22;;;;;;;44.93;19.80;;;;;;;-145.18;100.00;46701.41;5041432;28;20298;-73
2023/03/10 05:48:48;;;;;;;44.60;19.63;;;;;;;-145.18;100.00;46693.59;5042653;28;20037;-73
2023/03/10 05:51:13;;;;;;;45.57;18.27;;;;;;;-145.18;100.00;46699.47;5022699;28;20862;-73
2023/03/10 05:53:39;;;;;;;40.90;17.57;;;;;;;-145.18;100.00;46697.50;5046687;28;20102;-73
2023/03/10 05:56:14;;;;;;;38.33;16.03;;;;;;;-145.18;100.00;46699.47;5052268;28;20029;-74
2023/03/10 05:58:40;;;;;;;38.77;15.50;;;;;;;-145.18;100.00;46695.56;5053014;28;20297;-74
2023/03/10 06:01:06;;;;;;;36.90;14.23;;;;;;;-145.18;100.00;46687.75;5045367;28;20347;-73
2023/03/10 06:03:32;;;;;;;37.23;15.43;;;;;;;-145.18;100.00;46699.47;5014747;28;20564;-73
2023/03/10 06:05:58;;;;;;;34.17;15.43;;;;;;;-145.18;100.00;46691.66;5015106;28;20354;-73
2023/03/10 06:08:25;;;;;;;34.50;14.57;;;;;;;-145.18;100.00;46697.50;5032674;28;20048;-73
2023/03/10 06:10:50;;;;;;;33.83;13.60;;;;;;;-145.18;100.00;46697.50;5032941;28;20390;-73
2023/03/10 06:13:18;;;;;;;38.40;14.60;;;;;;;-145.18;100.00;46695.56;5040752;28;20425;-74
2023/03/10 06:15:50;;;;;;;35.03;15.17;;;;;;;-145.18;100.00;46697.50;5052766;28;20040;-74
2023/03/10 06:18:16;;;;;;;34.47;14.60;;;;;;;-145.18;100.00;46695.56;5051843;28;20339;-74
2023/03/10 06:20:41;;;;;;;33.47;14.07;;;;;;;-145.18;100.00;46693.59;5052449;28;20274;-74
2023/03/10 06:23:07;;;;;;;37.20;14.40;;;;;;;-145.18;100.00;46693.59;5052197;28;20400;-73
2023/03/10 06:25:32;;;;;;;32.67;13.60;;;;;;;-145.18;100.00;46697.50;5039212;28;20048;-73
2023/03/10 06:27:58;;;;;;;34.13;14.13;;;;;;;-145.18;100.00;46697.50;5032243;28;20639;-73
2023/03/10 06:30:23;;;;;;;33.23;13.20;;;;;;;-145.18;100.00;46695.56;5014624;28;20038;-74
2023/03/10 06:32:49;;;;;;;32.73;13.20;;;;;;;-145.18;100.00;46695.56;5032270;28;20025;-74
2023/03/10 06:35:14;;;;;;;33.83;13.83;;;;;;;-145.18;100.00;46691.66;5032033;28;20169;-73
2023/03/10 06:37:40;;;;;;;31.90;13.20;;;;;;;-145.18;100.00;46693.59;5028208;28;20026;-73
2023/03/10 06:40:08;;;;;;;30.87;13.33;;;;;;;-145.18;100.00;46697.50;5033663;28;20516;-74
2023/03/10 06:42:34;;;;;;;38.30;14.30;;;;;;;-145.18;100.00;46695.56;5051479;28;20266;-74
2023/03/10 06:45:00;;;;;;;31.47;12.67;;;;;;;-145.18;100.00;46695.56;5051358;28;20272;-74
2023/03/10 06:47:25;;;;;;;31.90;13.83;;;;;;;-145.18;100.00;46691.66;5034066;28;20030;-74
2023/03/10 06:49:53;;;;;;;33.47;13.53;;;;;;;-145.18;100.00;46691.66;5014024;28;20113;-74
2023/03/10 06:52:18;;;;;;;33.83;14.10;;;;;;;-145.18;100.00;46691.66;5039305;28;20060;-73
2023/03/10 06:54:44;;;;;;;38.07;14.60;;;;;;;-145.18;100.00;46691.66;5046737;28;20290;-74
2023/03/10 06:57:09;;;;;;;35.40;14.77;;;;;;;-145.18;100.00;46693.59;5048198;28;20034;-74
2023/03/10 06:59:35;;;;;;;33.87;13.10;;;;;;;-145.18;100.00;46693.59;5032203;28;20038;-74
2023/03/10 07:02:00;;;;;;;33.37;12.90;;;;;;;-145.18;100.00;46697.50;5015346;28;20041;-74
2023/03/10 07:04:25;;;;;;;33.57;13.10;;;;;;;-145.18;100.00;46695.56;5050676;28;20053;-74
2023/03/10 07:06:51;;;;;;;32.80;12.27;;;;;;;-145.18;100.00;46693.59;5051439;28;20452;-74
2023/03/10 07:09:16;;;;;;;30.37;13.13;;;;;;;-145.18;100.00;46693.59;5028637;28;20034;-74
2023/03/10 07:11:42;;;;;;;32.43;12.50;;;;;;;-145.18;100.00;46693.59;5015393;28;20116;-74
2023/03/10 07:14:07;;;;;;;31.90;11.77;;;;;;;-145.18;100.00;46695.56;5041253;28;20025;-74
2023/03/10 07:16:32;;;;;;;28.80;10.93;;;;;;;-145.18;100.00;46689.69;5046315;28;20079;-74
2023/03/10 07:18:58;;;;;;;24.97;11.23;;;;;;;-145.18;100.00;46691.66;5035012;28;20064;-74
2023/03/10 07:21:23;;;;;;;27.63;10.67;;;;;;;-145.18;100.00;46691.66;5031045;28;20481;-74
2023/03/10 07:23:49;;;;;;;27.97;12.07;;;;;;;-145.18;100.00;46693.59;5031071;28;20079;-74
2023/03/10 07:26:17;;;;;;;27.37;11.03;;;;;;;-145.18;100.00;46693.59;5031249;28;20034;-74
2023/03/10 07:28:43;;;;;;;27.63;11.20;;;;;;;-145.18;100.00;46691.66;5024433;28;20710;-74
2023/03/10 07:31:14;;;;;;;28.70;10.90;;;;;;;-145.18;100.00;46695.56;5036926;28;20366;-74
2023/03/10 07:33:39;;;;;;;30.27;11.17;;;;;;;-145.18;100.00;46693.59;5037506;28;20028;-74
2023/03/10 07:36:08;;;;;;;26.10;10.80;;;;;;;-145.18;100.00;46685.78;5051096;28;20361;-74
2023/03/10 07:38:33;;;;;;;24.20;10.93;;;;;;;-145.18;100.00;46691.66;5051100;28;20045;-74
2023/03/10 07:40:59;;;;;;;28.83;10.57;;;;;;;-145.18;100.00;46687.75;5051533;28;20796;-74
2023/03/10 07:43:25;;;;;;;24.03;10.27;;;;;;;-145.18;100.00;46693.59;5033643;28;20042;-74
2023/03/10 07:45:50;;;;;;;27.60;12.20;;;;;;;-145.18;100.00;46685.78;5031188;28;20033;-74
2023/03/10 07:48:15;;;;;;;26.20;9.87;;;;;;;-145.18;100.00;46689.69;5030244;28;20068;-74
2023/03/10 07:50:41;;;;;;;21.63;9.17;;;;;;;-145.18;100.00;46687.75;5035816;28;20112;-74
2023/03/10 07:53:06;;;;;;;23.03;9.97;;;;;;;-145.18;100.00;46691.66;5028683;28;20065;-74
2023/03/10 07:55:31;;;;;;;22.43;9.37;;;;;;;-145.18;100.00;46691.66;5041623;28;20041;-74
2023/03/10 07:57:59;;;;;;;22.60;9.57;;;;;;;-145.18;100.00;46689.69;5050328;28;20111;-74
2023/03/10 08:00:25;;;;;;;21.90;10.33;;;;;;;-145.18;100.00;46693.59;5050642;28;20025;-73
2023/03/10 08:02:50;;;;;;;21.90;9.40;;;;;;;-145.18;100.00;46691.66;5049495;28;20290;-73
2023/03/10 08:05:16;;;;;;;23.03;9.67;;;;;;;-145.18;100.00;46689.69;5050544;28;20352;-73
2023/03/10 08:07:42;;;;;;;20.17;9.23;;;;;;;-145.18;100.00;46691.66;5050035;28;20041;-73
2023/03/10 08:10:08;;;;;;;19.60;9.70;;;;;;;-145.18;100.00;46687.75;5050166;28;20076;-73
2023/03/10 08:12:33;;;;;;;18.87;9.70;;;;;;;-145.18;100.00;46687.75;5050609;28;20310;-73
2023/03/10 08:14:59;;;;;;;20.90;9.70;;;;;;;-145.18;100.00;46693.59;5050478;28;20807;-74
2023/03/10 08:17:29;;;;;;;23.70;9.67;;;;;;;-145.18;100.00;46685.78;5050201;28;20516;-73
2023/03/10 08:19:56;;;;;;;22.73;9.87;;;;;;;-145.18;100.00;46693.59;5048596;28;20037;-73
2023/03/10 08:22:22;;;;;;;19.03;9.13;;;;;;;-145.18;100.00;46691.66;5050428;28;20746;-73
2023/03/10 08:24:47;;;;;;;23.50;9.77;;;;;;;-145.18;100.00;46687.75;5050070;28;20278;-73
2023/03/10 08:27:12;;;;;;;20.77;9.63;;;;;;;-145.18;100.00;46687.75;5049119;28;20482;-73
2023/03/10 08:29:38;;;;;;;21.70;8.80;;;;;;;-145.18;100.00;46687.75;4995948;28;20148;-73
2023/03/10 08:32:03;;;;;;;26.60;9.57;;;;;;;-145.18;100.00;46693.59;5037352;28;20041;-74
2023/03/10 08:34:35;;;;;;;22.13;10.43;;;;;;;-145.18;100.00;46689.69;5049989;28;20386;-73
2023/03/10 08:37:01;;;;;;;28.60;12.47;;;;;;;-145.18;100.00;46687.75;5050411;28;20514;-74
2023/03/10 08:39:28;;;;;;;33.70;14.43;;;;;;;-145.18;100.00;46685.78;5050185;28;20298;-74
2023/03/10 08:41:53;;;;;;;34.50;13.80;;;;;;;-145.18;100.00;46685.78;5050215;28;20750;-73
2023/03/10 08:44:19;;;;;;;29.27;13.53;;;;;;;-145.18;100.00;46687.75;5031119;28;20279;-74
2023/03/10 08:46:46;;;;;;;30.77;15.03;;;;;;;-145.18;100.00;46687.75;5030443;28;20029;-73
2023/03/10 08:49:13;;;;;;;39.70;16.60;;;;;;;-145.18;100.00;46687.75;5029668;28;20397;-74
2023/03/10 08:51:39;;;;;;;33.73;15.97;;;;;;;-145.18;100.00;46685.78;5030281;28;20270;-74
2023/03/10 08:54:04;;;;;;;38.50;16.23;;;;;;;-145.18;100.00;46687.75;5030037;28;20271;-74
2023/03/10 08:56:30;;;;;;;30.30;14.80;;;;;;;-145.18;100.00;46683.84;5030083;28;20026;-73
2023/03/10 08:58:58;;;;;;;31.77;14.73;;;;;;;-145.18;100.00;46687.75;5029747;28;20030;-74
2023/03/10 09:01:25;;;;;;;34.07;14.77;;;;;;;-145.18;100.00;46685.78;5048361;28;20501;-73
2023/03/10 09:03:50;;;;;;;32.00;15.73;;;;;;;-145.18;100.00;46685.78;5049775;28;20289;-74
2023/03/10 09:06:15;;;;;;;33.33;15.53;;;;;;;-145.18;100.00;46683.84;5039273;28;20286;-74
2023/03/10 09:08:41;;;;;;;31.20;14.93;;;;;;;-145.18;100.00;46681.88;5029712;28;20080;-73
2023/03/10 09:11:08;;;;;;;31.07;13.83;;;;;;;-145.18;100.00;46685.78;5029604;28;20044;-73
2023/03/10 09:13:34;;;;;;;26.70;12.80;;;;;;;-145.18;100.00;46683.84;5026869;28;20037;-74
2023/03/10 09:15:59;;;;;;;29.03;13.37;;;;;;;-145.18;100.00;46681.88;5032269;28;20766;-74
2023/03/10 09:18:24;;;;;;;31.10;13.90;;;;;;;-145.18;100.00;46681.88;5049485;28;20039;-74
2023/03/10 09:20:50;;;;;;;27.90;13.87;;;;;;;-145.18;100.00;46685.78;5043555;28;20103;-74
2023/03/10 09:23:16;;;;;;;27.77;12.93;;;;;;;-145.18;100.00;46687.75;5029160;28;20034;-74
2023/03/10 09:25:41;;;;;;;33.00;16.50;;;;;;;-145.18;100.00;46687.75;5012549;28;20044;-74
2023/03/10 09:28:08;;;;;;;40.03;17.63;;;;;;;-145.18;100.00;46683.84;5029444;28;20038;-73
2023/03/10 09:30:36;;;;;;;32.87;16.13;;;;;;;-145.18;100.00;46683.84;5029751;28;20078;-74
2023/03/10 09:33:03;;;;;;;33.70;15.87;;;;;;;-145.18;100.00;46691.66;5029413;28;20755;-74
2023/03/10 09:35:29;;;;;;;29.03;14.13;;;;;;;-145.18;100.00;46687.75;5029970;28;20624;-73
2023/03/10 09:37:54;;;;;;;31.53;14.27;;;;;;;-145.18;100.00;46683.84;5035305;28;20273;-73
2023/03/10 09:40:20;;;;;;;30.73;13.53;;;;;;;-145.18;100.00;46683.84;5052953;28;20025;-74
2023/03/10 09:42:46;;;;;;;25.57;11.57;;;;;;;-145.18;100.00;46683.84;5053054;28;20505;-74
2023/03/10 09:45:37;;;;;;;23.53;11.30;;;;;;;-145.18;100.00;46683.84;5052626;28;20529;-73
2023/03/10 09:48:28;;;;;;;23.70;11.33;;;;;;;-145.18;100.00;46683.84;5053367;28;20707;-74
2023/03/10 09:50:55;;;;;;;23.33;11.70;;;;;;;-145.18;100.00;46685.78;5053207;28;20364;-74
2023/03/10 09:53:26;;;;;;;23.80;12.00;;;;;;;-145.18;100.00;46687.75;5036270;28;20931;-74
2023/03/10 09:55:52;;;;;;;21.97;10.93;;;;;;;-145.18;100.00;46687.75;5033301;28;20267;-73
2023/03/10 09:58:35;;;;;;;25.57;12.53;;;;;;;-145.18;100.00;46685.78;5032774;28;20350;-74
2023/03/10 10:01:02;;;;;;;31.93;13.43;;;;;;;-145.18;100.00;46683.84;5033151;28;20021;-74
2023/03/10 10:03:34;;;;;;;25.20;12.33;;;;;;;-145.18;100.00;46687.75;5033411;28;20350;-74
2023/03/10 10:06:03;;;;;;;23.40;12.80;;;;;;;-145.18;100.00;46679.94;5052356;28;20301;-73
2023/03/10 10:08:47;;;;;;;22.27;12.77;;;;;;;-145.18;100.00;46689.69;5052587;28;20290;-74
2023/03/10 10:11:15;;;;;;;21.67;11.83;;;;;;;-145.18;100.00;46687.75;5052663;28;20264;-74
2023/03/10 10:13:41;;;;;;;21.93;11.03;;;;;;;-145.18;100.00;46687.75;5052611;28;20354;-74
2023/03/10 10:16:06;;;;;;;22.13;10.90;;;;;;;-145.18;100.00;46691.66;5052444;28;20290;-73
2023/03/10 10:18:38;;;;;;;17.77;10.10;;;;;;;-145.18;100.00;46693.59;5052439;28;20320;-73
2023/03/10 10:21:35;;;;;;;25.20;10.57;;;;;;;-145.18;100.00;46685.78;5034320;28;20033;-74
2023/03/10 10:24:00;;;;;;;20.60;10.35;;;;;;;-145.18;100.00;46691.66;5032484;28;20364;-74
2023/03/10 10:26:26;;;;;;;21.30;9.53;;;;;;;-145.18;100.00;46687.75;5032504;28;20113;-73
2023/03/10 10:28:57;;;;;;;21.50;10.60;;;;;;;-145.18;100.00;46687.75;5032353;28;20068;-74
2023/03/10 10:31:25;;;;;;;17.30;9.37;;;;;;;-145.18;100.00;46687.75;5032386;28;20825;-73
2023/03/10 10:34:00;;;;;;;19.70;10.20;;;;;;;-145.18;100.00;46685.78;5050991;28;20268;-73
2023/03/10 10:36:31;;;;;;;21.40;10.20;;;;;;;-145.18;100.00;46691.66;5052271;28;20353;-74
2023/03/10 10:38:57;;;;;;;17.93;9.33;;;;;;;-145.18;100.00;46693.59;5034315;28;20847;-73
2023/03/10 10:41:26;;;;;;;20.37;8.80;;;;;;;-145.18;100.00;46689.69;5051914;28;20297;-74
2023/03/10 10:43:56;;;;;;;17.13;7.73;;;;;;;-145.18;100.00;46689.69;5049499;28;20644;-73
2023/03/10 10:46:28;;;;;;;19.00;8.37;;;;;;;-145.18;100.00;46691.66;5014154;28;20789;-73
2023/03/10 10:49:04;;;;;;;17.03;7.57;;;;;;;-145.18;100.00;46691.66;5032099;28;20299;-73
2023/03/10 10:51:34;;;;;;;16.25;8.23;;;;;;;-145.18;100.00;46687.75;5032005;28;20277;-74
2023/03/10 10:54:27;;;;;;;14.87;7.43;;;;;;;-145.18;100.00;46691.66;5031766;28;20037;-73
2023/03/10 10:56:54;;;;;;;15.30;7.50;;;;;;;-145.18;100.00;46695.56;5032117;28;20281;-73
2023/03/10 10:59:22;;;;;;;15.97;7.70;;;;;;;-145.18;100.00;46693.59;5047590;28;20278;-73